This is the latest recevied weather packets stored in our database for station/object E24CR-1. If no packets are shown the sender has not sent any weather packets the latest 1 day(s).
| Time | Temp. | Humidity | Pressure | Rain* | Wind** | Luminosity | Snow |
|---|---|---|---|---|---|---|---|
| 1778043826 | 36.67° C | 41% | 951 hPa | - | 0 m/s | 0 W/m² | - |
| 1778043199 | 36.67° C | 41% | 952 hPa | - | 0 m/s | 0 W/m² | - |
| 1778042575 | 36.67° C | 40% | 952 hPa | - | 0 m/s | 0 W/m² | - |
| 1778041951 | 36.67° C | 42% | 952 hPa | - | 0 m/s | 0 W/m² | - |
| 1778041327 | 37.22° C | 42% | 952 hPa | - | 0 m/s | 0 W/m² | - |
| 1778040703 | 36.11° C | 43% | 952 hPa | - | 0 m/s | 0 W/m² | - |
| 1778040078 | 34.44° C | 46% | 952 hPa | - | 0 m/s | 0 W/m² | - |
| 1778039455 | 35.56° C | 45% | 952 hPa | - | 0 m/s | 0 W/m² | - |
| 1778038830 | 35.56° C | 43% | 952 hPa | - | 0 m/s | 0 W/m² | - |
| 1778038206 | 35° C | 46% | 953 hPa | - | 0 m/s | 0 W/m² | - |
| 1778037582 | 33.33° C | 50% | 953 hPa | - | 0 m/s | 0 W/m² | - |
| 1778036958 | 33.89° C | 48% | 953 hPa | - | 0 m/s | 0 W/m² | - |
| 1778036334 | 32.78° C | 50% | 953 hPa | - | 0 m/s | 0 W/m² | - |
| 1778035709 | 32.78° C | 50% | 953 hPa | - | 0 m/s | 0 W/m² | - |
| 1778035085 | 32.22° C | 53% | 953 hPa | - | 0 m/s | 0 W/m² | - |
| 1778034461 | 31.67° C | 58% | 953 hPa | - | 0 m/s | 0 W/m² | - |
| 1778033837 | 30.56° C | 61% | 953 hPa | - | 0 m/s | 0 W/m² | - |
| 1778033212 | 30.56° C | 64% | 953 hPa | - | 0 m/s | 0 W/m² | - |
| 1778032588 | 31.11° C | 65% | 953 hPa | - | 0 m/s | 0 W/m² | - |
| 1778031964 | 30.56° C | 66% | 953 hPa | - | 0 m/s | 0 W/m² | - |
| 1778031340 | 30.56° C | 69% | 953 hPa | - | 0 m/s | 0 W/m² | - |
| 1778030716 | 29.44° C | 74% | 953 hPa | - | 0 m/s | 0 W/m² | - |
| 1778030091 | 28.89° C | 75% | 953 hPa | - | 0 m/s | 0 W/m² | - |
| 1778029467 | 27.78° C | 79% | 952 hPa | - | 0 m/s | 0 W/m² | - |
| 1778028843 | 27.22° C | 80% | 952 hPa | - | 0 m/s | 0 W/m² | - |
* Rain since midnight (hover to see other rain measurements)
** Current wind speed in m/s (hover to see current wind gust speed)